Time;durP1;ratioP1;P1;durP2;ratioP2;P2;SDS_P1;SDS_P2;PMS_P1;PMS_P2;Temp;Humidity;BMP_temperature;BMP_pressure;BME280_temperature;BME280_humidity;BME280_pressure;Samples;Min_cycle;Max_cycle;Signal;HPM_P1;HPM_P2
2022/06/01 00:01:22;;;;;;;683.47;195.05;;;;;;;;;;6271674;22;20006;-90
2022/06/01 00:03:49;;;;;;;682.47;193.60;;;;;;;;;;6271419;22;19996;-90
2022/06/01 00:06:15;;;;;;;674.60;192.40;;;;;;;;;;6272463;22;20000;-90
2022/06/01 00:08:41;;;;;;;664.88;188.60;;;;;;;;;;6271943;22;20428;-92
2022/06/01 00:11:08;;;;;;;634.55;177.63;;;;;;;;;;6272194;22;20149;-90
2022/06/01 00:13:34;;;;;;;603.42;166.02;;;;;;;;;;6272593;22;19999;-92
2022/06/01 00:16:01;;;;;;;608.47;169.13;;;;;;;;;;6270872;22;20004;-91
2022/06/01 00:18:27;;;;;;;565.35;153.70;;;;;;;;;;6244014;22;20423;-89
2022/06/01 00:20:53;;;;;;;560.78;152.38;;;;;;;;;;6271227;22;20083;-89
2022/06/01 00:23:20;;;;;;;557.20;151.13;;;;;;;;;;6271818;22;20368;-91
2022/06/01 00:25:46;;;;;;;562.78;155.10;;;;;;;;;;6271996;22;20007;-93
2022/06/01 00:28:12;;;;;;;558.55;153.93;;;;;;;;;;6271867;22;20011;-94
2022/06/01 00:30:39;;;;;;;554.85;151.23;;;;;;;;;;6272787;22;19999;-91
2022/06/01 00:33:05;;;;;;;579.88;159.23;;;;;;;;;;6245396;22;20075;-92
2022/06/01 00:35:31;;;;;;;565.47;155.98;;;;;;;;;;6271486;22;19999;-91
2022/06/01 00:37:57;;;;;;;566.83;156.35;;;;;;;;;;6271134;22;20004;-91
2022/06/01 00:40:26;;;;;;;560.65;153.85;;;;;;;;;;6272321;22;19999;-89
2022/06/01 00:42:53;;;;;;;565.20;155.90;;;;;;;;;;6271395;22;20003;-93
2022/06/01 00:45:21;;;;;;;560.60;153.65;;;;;;;;;;6271489;22;19996;-92
2022/06/01 00:47:48;;;;;;;590.40;164.90;;;;;;;;;;6271062;22;20000;-93
2022/06/01 00:50:23;;;;;;;684.42;197.60;;;;;;;;;;6271853;22;20691;-92
2022/06/01 00:52:52;;;;;;;659.20;190.88;;;;;;;;;;6271539;22;20007;-91
2022/06/01 00:55:30;;;;;;;654.83;188.95;;;;;;;;;;6244128;22;20428;-90
2022/06/01 00:58:04;;;;;;;671.95;194.10;;;;;;;;;;6271005;22;20011;-91
2022/06/01 01:00:32;;;;;;;690.85;199.77;;;;;;;;;;6271646;22;20296;-91
2022/06/01 01:03:00;;;;;;;668.22;194.25;;;;;;;;;;6271390;22;19999;-93
2022/06/01 01:05:27;;;;;;;701.28;208.55;;;;;;;;;;6271544;22;20006;-91
2022/06/01 01:07:54;;;;;;;656.42;191.93;;;;;;;;;;6271115;22;20011;-91
2022/06/01 01:10:20;;;;;;;687.22;207.38;;;;;;;;;;6271821;22;20000;-91
2022/06/01 01:12:56;;;;;;;729.28;219.35;;;;;;;;;;6271324;22;20007;-93
2022/06/01 01:15:24;;;;;;;224.38;77.82;;;;;;;;;;6244308;22;20008;-93
2022/06/01 01:17:50;;;;;;;582.50;168.75;;;;;;;;;;6271231;22;20391;-93
2022/06/01 01:20:17;;;;;;;519.42;145.95;;;;;;;;;;6244673;22;20073;-93
2022/06/01 01:22:47;;;;;;;704.35;218.85;;;;;;;;;;6271121;22;20079;-91
2022/06/01 01:25:19;;;;;;;581.15;170.75;;;;;;;;;;6244346;22;19996;-91
2022/06/01 01:27:46;;;;;;;770.38;243.57;;;;;;;;;;6271924;22;20007;-93
2022/06/01 01:30:26;;;;;;;766.35;250.93;;;;;;;;;;6246339;22;20145;-87
2022/06/01 01:32:52;;;;;;;763.88;250.63;;;;;;;;;;6272363;22;20000;-89
2022/06/01 01:35:19;;;;;;;741.78;239.52;;;;;;;;;;6272544;22;20003;-88
2022/06/01 01:37:45;;;;;;;803.70;263.67;;;;;;;;;;6272010;22;20011;-87
2022/06/01 01:40:12;;;;;;;837.47;273.98;;;;;;;;;;6273135;22;20021;-88
2022/06/01 01:42:39;;;;;;;812.08;279.65;;;;;;;;;;6273419;22;20003;-88
2022/06/01 01:45:12;;;;;;;689.17;228.50;;;;;;;;;;6271986;22;19999;-87
2022/06/01 01:47:38;;;;;;;525.72;163.18;;;;;;;;;;6273615;22;20054;-91
2022/06/01 01:50:09;;;;;;;734.45;241.23;;;;;;;;;;6274323;22;20000;-87
2022/06/01 01:52:35;;;;;;;701.25;232.40;;;;;;;;;;6272325;22;20336;-90
2022/06/01 01:55:07;;;;;;;625.85;199.68;;;;;;;;;;6245025;22;20008;-88
2022/06/01 01:57:53;;;;;;;635.47;193.80;;;;;;;;;;6257476;22;20024;-88
2022/06/01 02:00:28;;;;;;;640.05;197.65;;;;;;;;;;6273695;22;20424;-87
2022/06/01 02:02:54;;;;;;;600.10;180.00;;;;;;;;;;6271939;22;20039;-87
2022/06/01 02:08:18;;;;;;;703.65;216.02;;;;;;;;;;6273267;22;20054;-90
2022/06/01 02:13:29;;;;;;;741.13;227.35;;;;;;;;;;6272328;22;20022;-89
2022/06/01 02:15:56;;;;;;;762.47;231.35;;;;;;;;;;6271864;22;20030;-87
2022/06/01 02:18:24;;;;;;;797.10;242.80;;;;;;;;;;6272143;22;20022;-88
2022/06/01 02:20:50;;;;;;;;;;;;;;;;;;6272381;22;20433;-87
2022/06/01 02:23:17;;;;;;;762.28;235.50;;;;;;;;;;6244983;22;19899;-87
2022/06/01 02:25:44;;;;;;;790.13;242.32;;;;;;;;;;6245017;22;20032;-87
2022/06/01 02:28:11;;;;;;;776.65;237.63;;;;;;;;;;6245993;22;20008;-87
2022/06/01 02:30:39;;;;;;;788.63;239.45;;;;;;;;;;6272695;22;20074;-87
2022/06/01 02:33:06;;;;;;;728.38;219.45;;;;;;;;;;6271852;22;20004;-88
2022/06/01 02:35:36;;;;;;;756.58;229.68;;;;;;;;;;6244827;22;20444;-87
2022/06/01 02:38:04;;;;;;;767.40;234.65;;;;;;;;;;6244370;22;20019;-87
2022/06/01 02:40:30;;;;;;;;;;;;;;;;;;6245547;22;20421;-87
2022/06/01 02:42:56;;;;;;;734.45;224.80;;;;;;;;;;6272209;22;19970;-87
2022/06/01 02:45:24;;;;;;;696.40;207.05;;;;;;;;;;6244772;22;20440;-87
2022/06/01 02:47:52;;;;;;;729.67;220.52;;;;;;;;;;6244409;22;20427;-88
2022/06/01 02:50:19;;;;;;;732.33;221.30;;;;;;;;;;6271882;22;20078;-88
2022/06/01 02:52:46;;;;;;;747.33;226.68;;;;;;;;;;6271693;22;19995;-87
2022/06/01 02:55:12;;;;;;;761.20;230.80;;;;;;;;;;6272708;22;20000;-87
2022/06/01 02:57:40;;;;;;;767.30;232.90;;;;;;;;;;6271618;22;20134;-89
2022/06/01 03:00:17;;;;;;;754.55;229.55;;;;;;;;;;6272473;22;20023;-93
2022/06/01 03:02:43;;;;;;;763.40;233.27;;;;;;;;;;6273751;22;20054;-92
2022/06/01 03:05:09;;;;;;;759.55;232.27;;;;;;;;;;6272307;22;19995;-93
2022/06/01 03:07:35;;;;;;;790.13;245.43;;;;;;;;;;6246029;22;20370;-94
2022/06/01 03:10:01;;;;;;;735.50;228.35;;;;;;;;;;6245496;22;20270;-94
2022/06/01 03:12:27;;;;;;;703.70;219.18;;;;;;;;;;6272571;22;20014;-94
2022/06/01 03:14:53;;;;;;;719.15;223.35;;;;;;;;;;6245450;22;20004;-93
2022/06/01 03:17:19;;;;;;;712.28;220.27;;;;;;;;;;6272563;22;20436;-93
2022/06/01 03:19:45;;;;;;;720.80;223.20;;;;;;;;;;6246589;22;20332;-89
2022/06/01 03:22:12;;;;;;;715.53;219.55;;;;;;;;;;6246557;22;20026;-91
2022/06/01 03:24:38;;;;;;;736.33;229.52;;;;;;;;;;6245497;22;20369;-95
2022/06/01 03:27:04;;;;;;;743.90;230.90;;;;;;;;;;6244964;22;20030;-90
2022/06/01 03:29:30;;;;;;;724.92;225.52;;;;;;;;;;6272264;22;20027;-93
2022/06/01 03:31:58;;;;;;;722.75;226.75;;;;;;;;;;6244162;22;20004;-93
2022/06/01 03:34:25;;;;;;;744.00;232.83;;;;;;;;;;6244635;22;20000;-88
2022/06/01 03:36:51;;;;;;;721.77;226.67;;;;;;;;;;6243618;22;20094;-87
2022/06/01 03:39:17;;;;;;;696.97;219.25;;;;;;;;;;6271351;22;20007;-89
2022/06/01 03:41:43;;;;;;;711.42;222.68;;;;;;;;;;6272466;22;20004;-89
2022/06/01 03:47:00;;;;;;;690.25;216.32;;;;;;;;;;6271235;22;20023;-87
2022/06/01 03:49:26;;;;;;;676.88;209.43;;;;;;;;;;6244522;22;20440;-89
2022/06/01 03:51:56;;;;;;;635.47;192.65;;;;;;;;;;6243518;22;20015;-90
2022/06/01 03:54:22;;;;;;;632.85;191.60;;;;;;;;;;6244577;22;19996;-89
2022/06/01 03:56:48;;;;;;;608.85;182.00;;;;;;;;;;6243864;22;20020;-89
2022/06/01 03:59:14;;;;;;;570.40;163.48;;;;;;;;;;6272332;22;20045;-88
2022/06/01 04:01:40;;;;;;;623.25;185.13;;;;;;;;;;6271082;22;20004;-89
2022/06/01 04:04:06;;;;;;;633.83;192.13;;;;;;;;;;6243706;22;20058;-90
2022/06/01 04:06:32;;;;;;;620.45;184.05;;;;;;;;;;6243973;22;20007;-91
2022/06/01 04:08:58;;;;;;;589.92;170.98;;;;;;;;;;6243999;22;20007;-89
2022/06/01 04:11:24;;;;;;;523.13;147.70;;;;;;;;;;6241847;22;20031;-91
2022/06/01 04:13:51;;;;;;;547.13;153.27;;;;;;;;;;6240840;22;20052;-90
2022/06/01 04:16:18;;;;;;;488.92;136.80;;;;;;;;;;6271049;22;20057;-88
2022/06/01 04:18:45;;;;;;;542.15;150.88;;;;;;;;;;6271670;22;20424;-89
2022/06/01 04:21:11;;;;;;;588.45;168.77;;;;;;;;;;6268885;22;20580;-89
2022/06/01 04:23:37;;;;;;;449.13;125.65;;;;;;;;;;6244382;22;20276;-90
2022/06/01 04:26:03;;;;;;;435.65;124.95;;;;;;;;;;6245401;22;20014;-90
2022/06/01 04:28:29;;;;;;;490.15;134.65;;;;;;;;;;6296151;22;19983;-88
2022/06/01 04:30:55;;;;;;;489.88;135.43;;;;;;;;;;6270672;22;19983;-89
2022/06/01 04:33:22;;;;;;;507.20;140.15;;;;;;;;;;6273607;22;19987;-89
2022/06/01 04:35:48;;;;;;;470.05;130.18;;;;;;;;;;6276524;22;20004;-89
2022/06/01 04:38:14;;;;;;;369.38;109.65;;;;;;;;;;6274589;22;20018;-90
2022/06/01 04:40:44;;;;;;;347.25;103.18;;;;;;;;;;6244976;22;19995;-89
2022/06/01 04:43:12;;;;;;;421.38;119.75;;;;;;;;;;6271665;22;20326;-89
2022/06/01 04:45:38;;;;;;;407.38;117.68;;;;;;;;;;6272062;22;20195;-90
2022/06/01 04:48:04;;;;;;;357.80;107.10;;;;;;;;;;6244160;22;20018;-89
2022/06/01 04:50:30;;;;;;;401.13;116.03;;;;;;;;;;6244212;22;19999;-91
2022/06/01 04:52:56;;;;;;;311.77;96.35;;;;;;;;;;6243556;22;20004;-89
2022/06/01 04:55:22;;;;;;;356.73;105.97;;;;;;;;;;6243506;22;20502;-89
2022/06/01 04:57:49;;;;;;;304.02;93.72;;;;;;;;;;6243925;22;20011;-89
2022/06/01 05:00:15;;;;;;;318.52;97.28;;;;;;;;;;6273021;22;20007;-91
2022/06/01 05:02:42;;;;;;;369.00;107.90;;;;;;;;;;6244212;22;20003;-91
2022/06/01 05:05:08;;;;;;;293.83;91.20;;;;;;;;;;6242985;22;20255;-89
2022/06/01 05:07:34;;;;;;;312.40;96.07;;;;;;;;;;6270287;22;20034;-90
2022/06/01 05:10:00;;;;;;;329.58;99.53;;;;;;;;;;6242731;22;20011;-90
2022/06/01 05:12:26;;;;;;;246.57;81.22;;;;;;;;;;6243267;22;20035;-90
2022/06/01 05:14:53;;;;;;;212.82;73.53;;;;;;;;;;6243785;22;20339;-89
2022/06/01 05:17:19;;;;;;;255.13;81.68;;;;;;;;;;6244923;22;20153;-89
2022/06/01 05:19:45;;;;;;;247.98;80.70;;;;;;;;;;6272548;22;19996;-88
2022/06/01 05:22:11;;;;;;;276.45;87.93;;;;;;;;;;6244342;22;20008;-88
2022/06/01 05:24:37;;;;;;;199.82;70.90;;;;;;;;;;6244485;22;20079;-88
2022/06/01 05:27:04;;;;;;;214.15;74.43;;;;;;;;;;6244952;22;20011;-89
2022/06/01 05:29:30;;;;;;;229.68;78.38;;;;;;;;;;6271791;22;20049;-89
2022/06/01 05:31:56;;;;;;;222.63;75.65;;;;;;;;;;6244574;22;20011;-89
2022/06/01 05:34:22;;;;;;;302.20;92.75;;;;;;;;;;6271828;22;19996;-90
2022/06/01 05:36:48;;;;;;;263.73;84.25;;;;;;;;;;6244903;22;20455;-90
2022/06/01 05:39:14;;;;;;;294.48;90.07;;;;;;;;;;6272541;22;20011;-90
2022/06/01 05:41:40;;;;;;;218.05;74.07;;;;;;;;;;6272296;22;20003;-91
2022/06/01 05:44:07;;;;;;;246.27;81.95;;;;;;;;;;6245020;22;20082;-89
2022/06/01 05:46:36;;;;;;;254.55;82.50;;;;;;;;;;6245119;22;20038;-89
2022/06/01 05:49:03;;;;;;;281.13;88.00;;;;;;;;;;6244924;22;20031;-91
2022/06/01 05:51:29;;;;;;;249.93;81.78;;;;;;;;;;6272087;22;20004;-91
2022/06/01 05:53:57;;;;;;;240.73;79.35;;;;;;;;;;6244799;22;20401;-90
2022/06/01 05:56:26;;;;;;;264.70;84.55;;;;;;;;;;6245307;22;20011;-89
2022/06/01 05:58:52;;;;;;;;;;;;;;;;;;6272692;22;19999;-90
2022/06/01 06:01:22;;;;;;;304.80;92.95;;;;;;;;;;6245145;22;19899;-90
2022/06/01 06:03:49;;;;;;;313.08;93.00;;;;;;;;;;6245459;22;20006;-90
2022/06/01 06:06:16;;;;;;;279.80;85.90;;;;;;;;;;6245809;22;20133;-91
2022/06/01 06:09:00;;;;;;;302.25;90.85;;;;;;;;;;6245340;22;20004;-90
2022/06/01 06:11:29;;;;;;;307.13;93.03;;;;;;;;;;6272480;22;20454;-91
2022/06/01 06:14:06;;;;;;;;;;;;;;;;;;;;;
2022/06/01 06:16:50;;;;;;;384.42;109.57;;;;;;;;;;6274424;22;20491;-91
2022/06/01 06:19:25;;;;;;;382.58;108.90;;;;;;;;;;6247643;22;20038;-90
2022/06/01 06:21:51;;;;;;;343.63;100.90;;;;;;;;;;6273537;22;20019;-91
2022/06/01 06:24:19;;;;;;;365.13;105.63;;;;;;;;;;6247399;22;20348;-90
2022/06/01 06:26:49;;;;;;;359.67;103.93;;;;;;;;;;6247657;22;20000;-91
2022/06/01 06:29:19;;;;;;;386.80;107.82;;;;;;;;;;6247410;22;20014;-91
2022/06/01 06:31:50;;;;;;;371.50;103.78;;;;;;;;;;6247398;22;20000;-90
2022/06/01 06:34:17;;;;;;;412.25;113.68;;;;;;;;;;6247269;22;20393;-89
2022/06/01 06:36:46;;;;;;;438.90;118.10;;;;;;;;;;6247436;22;20098;-91
2022/06/01 06:39:30;;;;;;;423.15;115.28;;;;;;;;;;6272760;22;20015;-89
2022/06/01 06:41:56;;;;;;;444.50;119.32;;;;;;;;;;6245518;22;20011;-90
2022/06/01 06:44:35;;;;;;;478.75;125.22;;;;;;;;;;6246662;22;19999;-90
2022/06/01 06:47:15;;;;;;;441.25;118.03;;;;;;;;;;6246107;22;20085;-91
2022/06/01 06:49:41;;;;;;;447.17;118.80;;;;;;;;;;6246531;22;20390;-89
2022/06/01 06:52:28;;;;;;;422.33;115.28;;;;;;;;;;6273328;22;20061;-89
2022/06/01 06:54:56;;;;;;;391.35;108.03;;;;;;;;;;6273289;22;20003;-90
2022/06/01 06:57:22;;;;;;;446.95;118.05;;;;;;;;;;6246398;22;20012;-89
2022/06/01 06:59:56;;;;;;;426.30;114.28;;;;;;;;;;6246452;22;20007;-89
2022/06/01 07:02:22;;;;;;;460.95;120.57;;;;;;;;;;6245771;22;20008;-89
2022/06/01 07:04:56;;;;;;;425.92;114.05;;;;;;;;;;6264047;22;19988;-91
2022/06/01 07:07:24;;;;;;;406.35;110.10;;;;;;;;;;6273319;22;20011;-90
2022/06/01 07:09:55;;;;;;;429.27;112.80;;;;;;;;;;6275228;22;19996;-89
2022/06/01 07:12:22;;;;;;;447.92;117.15;;;;;;;;;;6251591;22;20016;-91
2022/06/01 07:15:18;;;;;;;392.98;107.20;;;;;;;;;;6249015;22;20000;-89
2022/06/01 07:17:45;;;;;;;399.75;109.03;;;;;;;;;;6252302;22;20065;-90
2022/06/01 07:20:11;;;;;;;369.77;102.20;;;;;;;;;;6246319;22;20003;-91
2022/06/01 07:22:47;;;;;;;381.55;104.60;;;;;;;;;;6246252;22;20008;-89
2022/06/01 07:25:17;;;;;;;307.23;90.35;;;;;;;;;;6247273;22;20395;-91
2022/06/01 07:30:35;;;;;;;395.95;107.55;;;;;;;;;;6179676;23;20016;-91
2022/06/01 07:33:31;;;;;;;;;;;;;;;;;;;;;
2022/06/01 07:36:18;;;;;;;337.45;96.32;;;;;;;;;;6273058;22;20487;-92
2022/06/01 07:44:40;;;;;;;282.88;86.13;;;;;;;;;;6220402;22;20528;-89
2022/06/01 07:47:23;;;;;;;;;;;;;;;;;;;;;
2022/06/01 07:49:58;;;;;;;307.15;91.25;;;;;;;;;;6272859;22;20075;-91
2022/06/01 07:52:24;;;;;;;373.83;103.72;;;;;;;;;;6245759;22;20057;-88
2022/06/01 07:54:54;;;;;;;381.67;104.03;;;;;;;;;;6245252;22;20452;-89
2022/06/01 07:57:22;;;;;;;393.65;106.93;;;;;;;;;;6245755;22;20099;-90
2022/06/01 08:00:00;;;;;;;406.88;109.70;;;;;;;;;;6246209;22;20002;-90
2022/06/01 08:02:28;;;;;;;415.73;111.80;;;;;;;;;;6245374;22;20007;-89
2022/06/01 08:04:54;;;;;;;;;;;;;;;;;;6245664;22;20517;-91
2022/06/01 08:07:21;;;;;;;449.58;117.47;;;;;;;;;;6272620;22;19899;-90
2022/06/01 08:09:48;;;;;;;468.58;120.60;;;;;;;;;;6246871;22;20004;-89
2022/06/01 08:15:12;;;;;;;471.75;121.65;;;;;;;;;;6272536;22;20011;-92
2022/06/01 08:18:06;;;;;;;471.27;121.07;;;;;;;;;;6272346;22;20012;-93
2022/06/01 08:20:35;;;;;;;496.25;126.57;;;;;;;;;;6234674;22;20464;-91
2022/06/01 08:23:01;;;;;;;487.45;124.53;;;;;;;;;;6244861;22;20010;-89
2022/06/01 08:25:28;;;;;;;452.80;118.25;;;;;;;;;;6271987;22;20075;-91
2022/06/01 08:28:07;;;;;;;464.08;119.38;;;;;;;;;;6245066;22;20004;-90
2022/06/01 08:30:34;;;;;;;434.35;113.63;;;;;;;;;;6245083;22;20049;-90
2022/06/01 08:33:23;;;;;;;434.20;113.40;;;;;;;;;;6245402;22;19995;-90
2022/06/01 08:35:56;;;;;;;428.75;112.63;;;;;;;;;;6244877;22;20000;-91
2022/06/01 08:38:43;;;;;;;459.90;118.50;;;;;;;;;;6244732;22;20016;-89
2022/06/01 08:41:10;;;;;;;441.15;115.25;;;;;;;;;;6271361;22;20004;-90
2022/06/01 08:44:24;;;;;;;464.08;118.80;;;;;;;;;;6245559;22;20007;-91
2022/06/01 08:46:45;;;;;;;455.88;117.80;;;;;;;;;;6263991;22;20003;-90
2022/06/01 08:49:15;;;;;;;477.50;121.15;;;;;;;;;;6245095;22;20376;-90
2022/06/01 08:51:41;;;;;;;491.70;123.85;;;;;;;;;;6244968;22;20015;-90
2022/06/01 08:54:07;;;;;;;483.35;123.18;;;;;;;;;;6245062;22;20007;-89
2022/06/01 08:56:42;;;;;;;497.77;125.30;;;;;;;;;;6245482;22;20018;-91
2022/06/01 08:59:24;;;;;;;516.72;129.00;;;;;;;;;;6245104;22;20027;-89
2022/06/01 09:02:23;;;;;;;;;;;;;;;;;;;;;
2022/06/01 09:04:53;;;;;;;532.33;132.07;;;;;;;;;;6272695;22;20075;-90
2022/06/01 09:07:58;;;;;;;486.88;123.03;;;;;;;;;;6245304;22;20007;-92
2022/06/01 09:10:40;;;;;;;;;;;;;;;;;;;;;
2022/06/01 09:13:12;;;;;;;511.35;127.68;;;;;;;;;;6271963;22;20094;-90
2022/06/01 09:18:40;;;;;;;541.13;134.38;;;;;;;;;;6255686;22;20440;-90
2022/06/01 09:23:56;;;;;;;548.33;136.55;;;;;;;;;;6271490;22;20095;-92
2022/06/01 09:26:57;;;;;;;565.45;140.00;;;;;;;;;;6244889;22;20027;-91
2022/06/01 09:29:56;;;;;;;;;;;;;;;;;;;;;
2022/06/01 09:32:35;;;;;;;;;;;;;;;;;;;;;
2022/06/01 09:35:33;;;;;;;561.95;139.45;;;;;;;;;;6272342;22;20075;-91
2022/06/01 09:38:02;;;;;;;571.10;141.85;;;;;;;;;;6264890;22;20011;-91
2022/06/01 09:40:48;;;;;;;555.80;138.20;;;;;;;;;;6264050;22;19995;-89
2022/06/01 09:49:18;;;;;;;554.92;136.88;;;;;;;;;;6259837;22;20344;-91
2022/06/01 09:52:00;;;;;;;579.75;143.35;;;;;;;;;;6248638;22;20012;-91
2022/06/01 09:54:52;;;;;;;567.45;140.15;;;;;;;;;;6274003;22;20003;-90
2022/06/01 09:57:38;;;;;;;582.50;142.80;;;;;;;;;;6246937;22;20012;-90
2022/06/01 10:09:30;;;;;;;;;;;;;;;;;;;;;
2022/06/01 10:15:03;;;;;;;531.80;131.85;;;;;;;;;;6257231;22;20000;-90
2022/06/01 10:17:56;;;;;;;555.53;136.82;;;;;;;;;;6273338;22;20007;-89
2022/06/01 10:20:26;;;;;;;556.63;136.45;;;;;;;;;;6272553;22;20003;-89
2022/06/01 10:23:28;;;;;;;;;;;;;;;;;;;;;
2022/06/01 10:25:56;;;;;;;559.70;137.25;;;;;;;;;;6253168;22;20090;-90
2022/06/01 10:28:36;;;;;;;547.90;133.68;;;;;;;;;;6273933;22;20051;-91
2022/06/01 10:31:21;;;;;;;542.97;133.18;;;;;;;;;;6246747;22;20368;-91
2022/06/01 10:33:59;;;;;;;;;;;;;;;;;;;;;
2022/06/01 10:36:43;;;;;;;604.50;146.95;;;;;;;;;;6273953;22;20086;-92
2022/06/01 10:42:17;;;;;;;592.65;143.73;;;;;;;;;;6258054;22;20027;-90
2022/06/01 10:45:02;;;;;;;597.80;145.23;;;;;;;;;;6274012;22;20000;-90
2022/06/01 10:47:54;;;;;;;594.35;144.05;;;;;;;;;;6273014;22;20049;-91
2022/06/01 10:50:21;;;;;;;612.30;148.30;;;;;;;;;;6243125;22;20066;-90
2022/06/01 10:52:53;;;;;;;585.57;142.93;;;;;;;;;;6246242;22;20011;-90
2022/06/01 10:55:25;;;;;;;592.42;144.20;;;;;;;;;;6245444;22;20004;-91
2022/06/01 10:57:51;;;;;;;571.83;139.75;;;;;;;;;;6273192;22;20007;-91
2022/06/01 11:00:44;;;;;;;589.33;142.75;;;;;;;;;;6248900;22;20011;-91
2022/06/01 11:03:23;;;;;;;599.33;146.77;;;;;;;;;;6248999;22;20011;-90
2022/06/01 11:05:59;;;;;;;596.30;143.68;;;;;;;;;;6249071;22;20020;-89
2022/06/01 11:08:46;;;;;;;597.28;144.80;;;;;;;;;;6272222;22;20038;-90
2022/06/01 11:11:12;;;;;;;624.90;151.35;;;;;;;;;;6272584;22;20004;-91
2022/06/01 11:13:58;;;;;;;643.97;156.15;;;;;;;;;;6272336;22;20022;-91
2022/06/01 11:16:39;;;;;;;681.55;167.43;;;;;;;;;;6272558;22;20447;-91
2022/06/01 11:19:05;;;;;;;706.22;174.20;;;;;;;;;;6272010;22;20000;-90
2022/06/01 11:21:34;;;;;;;722.50;178.52;;;;;;;;;;6245416;22;20031;-90
2022/06/01 11:24:28;;;;;;;773.17;195.93;;;;;;;;;;6245374;22;20397;-89
2022/06/01 11:27:12;;;;;;;764.25;192.27;;;;;;;;;;6239285;22;20023;-91
2022/06/01 11:29:58;;;;;;;757.40;189.02;;;;;;;;;;6273624;22;19999;-92
2022/06/01 11:33:15;;;;;;;;;;;;;;;;;;;;;
2022/06/01 11:35:41;;;;;;;;;;;;;;;;;;6183231;23;20072;-96
2022/06/01 11:38:18;;;;;;;783.25;196.98;;;;;;;;;;6183790;23;19931;-91
2022/06/01 11:47:39;;;;;;;736.78;184.98;;;;;;;;;;6031039;23;20463;-92
2022/06/01 11:50:26;;;;;;;726.72;180.75;;;;;;;;;;6005722;23;20342;-92
2022/06/01 11:53:19;;;;;;;710.58;177.80;;;;;;;;;;6167751;23;20015;-91
2022/06/01 11:55:46;;;;;;;716.22;178.18;;;;;;;;;;6265884;22;20015;-94
2022/06/01 11:58:19;;;;;;;704.80;173.82;;;;;;;;;;6272283;22;20007;-92
2022/06/01 12:00:58;;;;;;;708.17;175.05;;;;;;;;;;6273326;22;20052;-95
2022/06/01 12:03:41;;;;;;;729.50;180.77;;;;;;;;;;6245424;22;20007;-92
2022/06/01 12:06:38;;;;;;;709.70;173.73;;;;;;;;;;6244898;22;20081;-92
2022/06/01 12:09:22;;;;;;;662.97;160.60;;;;;;;;;;6244537;22;20053;-93
2022/06/01 12:11:49;;;;;;;680.72;165.93;;;;;;;;;;6242872;22;20018;-90
2022/06/01 12:14:27;;;;;;;716.40;175.95;;;;;;;;;;6244084;22;20042;-91
2022/06/01 12:17:12;;;;;;;717.60;176.68;;;;;;;;;;6243567;22;20408;-95
2022/06/01 12:19:44;;;;;;;705.85;173.35;;;;;;;;;;6242976;22;20285;-88
2022/06/01 12:28:30;;;;;;;698.22;170.43;;;;;;;;;;6246687;22;20011;-91
2022/06/01 12:30:51;;;;;;;697.65;170.68;;;;;;;;;;6273432;22;20038;-92
2022/06/01 12:33:28;;;;;;;693.65;168.75;;;;;;;;;;6245928;22;20004;-92
2022/06/01 12:35:56;;;;;;;701.40;169.70;;;;;;;;;;6272790;22;19996;-90
2022/06/01 12:38:33;;;;;;;700.70;168.48;;;;;;;;;;6248428;22;20344;-92
2022/06/01 12:41:15;;;;;;;688.85;167.23;;;;;;;;;;6245855;22;20082;-94
2022/06/01 12:43:46;;;;;;;718.65;176.52;;;;;;;;;;6240136;22;20007;-92
2022/06/01 12:46:20;;;;;;;724.40;178.65;;;;;;;;;;6269186;22;20008;-91
2022/06/01 12:48:46;;;;;;;723.50;179.18;;;;;;;;;;6269469;22;20003;-91
2022/06/01 12:51:14;;;;;;;703.60;171.32;;;;;;;;;;6268209;22;20004;-90
2022/06/01 12:53:47;;;;;;;696.00;171.63;;;;;;;;;;6242461;22;20031;-90
2022/06/01 12:56:21;;;;;;;693.28;170.30;;;;;;;;;;6242668;22;20095;-88
2022/06/01 12:58:50;;;;;;;729.08;181.85;;;;;;;;;;6242368;22;20061;-88
2022/06/01 13:01:20;;;;;;;740.35;182.88;;;;;;;;;;6243072;22;20008;-89
2022/06/01 13:03:49;;;;;;;711.42;175.38;;;;;;;;;;6269719;22;20004;-88
2022/06/01 13:06:21;;;;;;;700.38;171.13;;;;;;;;;;6242344;22;20014;-91
2022/06/01 13:08:55;;;;;;;726.47;177.98;;;;;;;;;;6242601;22;20368;-91
2022/06/01 13:11:27;;;;;;;734.58;181.98;;;;;;;;;;6241503;22;20654;-88
2022/06/01 13:13:53;;;;;;;758.42;190.35;;;;;;;;;;6268713;22;20006;-90
2022/06/01 13:16:22;;;;;;;768.08;191.98;;;;;;;;;;6241907;22;20027;-90
2022/06/01 13:18:49;;;;;;;780.85;195.48;;;;;;;;;;6269346;22;20376;-89
2022/06/01 13:21:35;;;;;;;788.70;196.95;;;;;;;;;;6243425;22;20334;-89
2022/06/01 13:24:03;;;;;;;783.25;195.85;;;;;;;;;;6240303;22;20053;-90
2022/06/01 13:26:29;;;;;;;;;;;;;;;;;;6271922;22;20369;-89
2022/06/01 13:28:58;;;;;;;799.47;199.57;;;;;;;;;;6243060;22;19949;-90
2022/06/01 13:31:25;;;;;;;813.65;202.80;;;;;;;;;;6243438;22;20420;-90
2022/06/01 13:33:51;;;;;;;807.83;200.10;;;;;;;;;;6270445;22;20436;-89
2022/06/01 13:36:30;;;;;;;777.70;191.88;;;;;;;;;;6271799;22;20420;-91
2022/06/01 13:39:25;;;;;;;772.22;191.45;;;;;;;;;;6242934;22;20016;-88
2022/06/01 13:41:54;;;;;;;752.72;184.05;;;;;;;;;;6186620;22;20016;-88
2022/06/01 13:44:58;;;;;;;758.65;184.45;;;;;;;;;;6243285;22;20014;-89
2022/06/01 13:47:32;;;;;;;750.00;182.77;;;;;;;;;;6178654;23;20112;-88
2022/06/01 13:50:27;;;;;;;750.80;184.90;;;;;;;;;;6179079;23;20036;-90
2022/06/01 13:52:53;;;;;;;792.35;197.02;;;;;;;;;;6228037;22;20052;-90
2022/06/01 13:55:22;;;;;;;790.60;195.75;;;;;;;;;;6245990;22;20004;-89
2022/06/01 13:57:56;;;;;;;788.33;194.52;;;;;;;;;;6273485;22;20007;-89
2022/06/01 14:00:33;;;;;;;812.83;201.30;;;;;;;;;;6272671;22;20000;-89
2022/06/01 14:03:02;;;;;;;818.67;202.85;;;;;;;;;;6273599;22;20007;-89
2022/06/01 14:05:46;;;;;;;853.83;212.57;;;;;;;;;;6278564;22;20000;-88
2022/06/01 14:08:26;;;;;;;830.38;206.65;;;;;;;;;;6273114;22;20074;-89
2022/06/01 14:10:52;;;;;;;873.03;218.30;;;;;;;;;;6272095;22;20006;-90
2022/06/01 14:13:23;;;;;;;899.53;224.75;;;;;;;;;;6245185;22;20057;-89
2022/06/01 14:15:50;;;;;;;891.53;222.85;;;;;;;;;;6245046;22;20007;-90
2022/06/01 14:18:20;;;;;;;897.00;225.20;;;;;;;;;;6273451;22;20016;-89
2022/06/01 14:20:47;;;;;;;911.10;228.63;;;;;;;;;;6273217;22;19999;-90
2022/06/01 14:23:13;;;;;;;940.35;237.50;;;;;;;;;;6271840;22;20399;-89
2022/06/01 14:28:29;;;;;;;948.17;239.77;;;;;;;;;;6270952;22;20355;-89
2022/06/01 14:30:56;;;;;;;961.38;246.30;;;;;;;;;;6270963;22;20086;-88
2022/06/01 14:33:24;;;;;;;995.60;254.30;;;;;;;;;;6245148;22;20000;-90
2022/06/01 14:35:52;;;;;;;954.05;245.30;;;;;;;;;;6239612;22;20368;-89
2022/06/01 14:38:19;;;;;;;897.20;231.48;;;;;;;;;;6273340;22;20003;-88
2022/06/01 14:40:45;;;;;;;924.47;237.63;;;;;;;;;;6273144;22;20045;-94
2022/06/01 14:43:11;;;;;;;982.05;251.95;;;;;;;;;;6244221;22;20010;-91
2022/06/01 14:45:38;;;;;;;1002.67;255.05;;;;;;;;;;6244235;22;20007;-92
2022/06/01 14:48:04;;;;;;;1013.85;257.77;;;;;;;;;;6271392;22;20000;-89
2022/06/01 14:50:30;;;;;;;1024.72;259.42;;;;;;;;;;6271735;22;20004;-90
2022/06/01 14:52:56;;;;;;;1016.33;257.80;;;;;;;;;;6271539;22;20450;-90
2022/06/01 14:55:22;;;;;;;1015.40;256.52;;;;;;;;;;6245669;22;20003;-90
2022/06/01 14:57:49;;;;;;;980.78;248.48;;;;;;;;;;6272896;22;20039;-90
2022/06/01 15:00:23;;;;;;;979.72;246.60;;;;;;;;;;6296391;22;19988;-90
2022/06/01 15:02:53;;;;;;;991.25;250.85;;;;;;;;;;6281584;22;20019;-93
2022/06/01 15:05:38;;;;;;;;;;;;;;;;;;;;;
2022/06/01 15:08:15;;;;;;;;;;;;;;;;;;;;;
2022/06/01 15:10:41;;;;;;;1069.30;267.50;;;;;;;;;;6275272;22;20098;-92
2022/06/01 15:13:11;;;;;;;1038.97;261.13;;;;;;;;;;6254912;22;20012;-92
2022/06/01 15:15:41;;;;;;;1055.05;265.80;;;;;;;;;;6249948;22;20027;-93
2022/06/01 15:18:10;;;;;;;1029.63;259.33;;;;;;;;;;6244796;22;20019;-92
2022/06/01 15:20:56;;;;;;;1061.45;266.70;;;;;;;;;;6272019;22;20004;-92
2022/06/01 15:23:40;;;;;;;;;;;;;;;;;;;;;
2022/06/01 15:26:45;;;;;;;1087.22;275.75;;;;;;;;;;6274946;22;20087;-90
2022/06/01 15:44:00;;;;;;;;;;;;;;;;;;;;;
2022/06/01 15:49:33;;;;;;;1147.35;289.42;;;;;;;;;;6122338;23;20039;-90
2022/06/01 15:52:37;;;;;;;1154.82;290.08;;;;;;;;;;6178830;23;20056;-90
2022/06/01 15:55:04;;;;;;;1125.68;284.63;;;;;;;;;;6234030;22;20359;-88
2022/06/01 15:57:48;;;;;;;1102.47;280.43;;;;;;;;;;6276099;22;20014;-93
2022/06/01 16:00:29;;;;;;;;;;;;;;;;;;;;;